Time;durP1;ratioP1;P1;durP2;ratioP2;P2;SDS_P1;SDS_P2;PMS_P1;PMS_P2;Temp;Humidity;BMP_temperature;BMP_pressure;BME280_temperature;BME280_humidity;BME280_pressure;Samples;Min_cycle;Max_cycle;Signal;HPM_P1;HPM_P2
2021/08/06 00:02:18;;;;;;;0.70;0.60;;;19.40;99.90;;;;;;5010994;28;20763;-75
2021/08/06 00:04:45;;;;;;;1.73;1.10;;;19.40;99.90;;;;;;5018297;28;20330;-72
2021/08/06 00:07:12;;;;;;;0.70;0.50;;;19.50;99.90;;;;;;5012709;28;20489;-76
2021/08/06 00:09:39;;;;;;;0.80;0.70;;;19.50;99.90;;;;;;5003385;28;20915;-77
2021/08/06 00:12:05;;;;;;;1.30;1.20;;;19.50;99.90;;;;;;5028828;28;20426;-76
2021/08/06 00:14:32;;;;;;;0.80;0.70;;;19.50;99.90;;;;;;5012697;28;20804;-75
2021/08/06 00:16:57;;;;;;;0.70;0.50;;;19.50;99.90;;;;;;5012299;28;20464;-76
2021/08/06 00:19:23;;;;;;;0.80;0.80;;;19.50;99.90;;;;;;5012814;28;20934;-77
2021/08/06 00:21:49;;;;;;;0.70;0.60;;;19.40;99.90;;;;;;5012604;28;20201;-77
2021/08/06 00:24:14;;;;;;;1.10;0.70;;;19.40;99.90;;;;;;5015451;28;20192;-77
2021/08/06 00:26:41;;;;;;;1.57;1.47;;;19.40;99.90;;;;;;5013673;28;20222;-77
2021/08/06 00:29:06;;;;;;;1.23;1.00;;;19.30;99.90;;;;;;5014298;28;20172;-77
2021/08/06 00:31:32;;;;;;;2.03;1.17;;;19.30;99.90;;;;;;5015091;28;20423;-77
2021/08/06 00:33:58;;;;;;;0.80;0.60;;;19.30;99.90;;;;;;5020651;28;20195;-76
2021/08/06 00:36:23;;;;;;;0.80;0.60;;;19.30;99.90;;;;;;5023622;28;20252;-77
2021/08/06 00:38:49;;;;;;;0.90;0.60;;;19.30;99.90;;;;;;5019503;28;20180;-77
2021/08/06 00:41:14;;;;;;;1.10;0.90;;;19.30;99.90;;;;;;5006823;28;20179;-77
2021/08/06 00:43:40;;;;;;;1.00;0.87;;;19.30;99.90;;;;;;5000302;28;20176;-76
2021/08/06 00:46:06;;;;;;;0.80;0.60;;;19.20;99.90;;;;;;5013581;28;20524;-75
2021/08/06 00:48:32;;;;;;;0.80;0.80;;;19.20;99.90;;;;;;5021121;28;20187;-77
2021/08/06 00:50:58;;;;;;;0.70;0.50;;;19.30;99.90;;;;;;5022619;28;20587;-77
2021/08/06 00:53:24;;;;;;;1.17;1.07;;;19.30;99.90;;;;;;5031770;28;20456;-75
2021/08/06 00:55:50;;;;;;;0.70;0.50;;;19.30;99.90;;;;;;5031114;28;20491;-75
2021/08/06 00:58:16;;;;;;;0.70;0.50;;;19.30;99.90;;;;;;5014014;28;20999;-77
2021/08/06 01:00:42;;;;;;;2.23;0.90;;;19.30;99.90;;;;;;5030223;28;20254;-77
2021/08/06 01:03:20;;;;;;;0.90;0.70;;;19.40;99.90;;;;;;5028795;28;20544;-77
2021/08/06 01:05:55;;;;;;;0.87;0.60;;;19.40;99.90;;;;;;5016114;28;20195;-77
2021/08/06 01:08:29;;;;;;;0.70;0.60;;;19.40;99.90;;;;;;5000856;28;20480;-76
2021/08/06 01:10:59;;;;;;;0.70;0.60;;;19.40;99.90;;;;;;5016074;28;20418;-73
2021/08/06 01:13:48;;;;;;;0.80;0.77;;;19.40;99.90;;;;;;5027688;28;20785;-77
2021/08/06 01:16:15;;;;;;;0.70;0.60;;;19.50;99.90;;;;;;5032950;28;20584;-77
2021/08/06 01:18:48;;;;;;;3.70;1.03;;;19.50;99.90;;;;;;5001536;28;20498;-77
2021/08/06 01:21:17;;;;;;;1.40;1.10;;;19.50;99.90;;;;;;5035506;28;20432;-77
2021/08/06 01:23:43;;;;;;;4.47;0.97;;;19.50;99.90;;;;;;5033894;28;21125;-76
2021/08/06 01:26:17;;;;;;;1.13;0.60;;;19.40;99.90;;;;;;5035014;28;20440;-75
2021/08/06 01:28:45;;;;;;;1.07;0.90;;;19.40;99.90;;;;;;5017761;28;20434;-77
2021/08/06 01:31:13;;;;;;;1.40;1.30;;;19.40;99.90;;;;;;5035431;28;20420;-77
2021/08/06 01:33:38;;;;;;;1.07;0.70;;;19.40;99.90;;;;;;5019578;28;20457;-77
2021/08/06 01:36:04;;;;;;;0.70;0.50;;;19.40;99.90;;;;;;5030049;28;20963;-77
2021/08/06 01:38:30;;;;;;;0.80;0.70;;;19.50;99.90;;;;;;4998422;28;20642;-78
2021/08/06 01:41:11;;;;;;;0.80;0.77;;;19.40;99.90;;;;;;5034226;28;20175;-77
2021/08/06 01:43:46;;;;;;;0.73;0.60;;;19.40;99.90;;;;;;5020218;28;20176;-77
2021/08/06 01:46:43;;;;;;;1.00;0.90;;;19.40;99.90;;;;;;5019831;28;20440;-77
2021/08/06 01:49:13;;;;;;;1.63;0.77;;;19.40;99.90;;;;;;5005293;28;20414;-76
2021/08/06 01:51:42;;;;;;;0.80;0.70;;;19.30;99.90;;;;;;5020079;28;20403;-76
2021/08/06 01:54:11;;;;;;;0.93;0.77;;;19.30;99.90;;;;;;5019152;28;20930;-75
2021/08/06 01:56:38;;;;;;;0.70;0.50;;;19.30;99.90;;;;;;5023617;28;20784;-77
2021/08/06 01:59:04;;;;;;;1.10;0.70;;;19.20;99.90;;;;;;5026459;28;20414;-77
2021/08/06 02:01:30;;;;;;;0.70;0.60;;;19.20;99.90;;;;;;5027978;28;20410;-77
2021/08/06 02:03:56;;;;;;;0.70;0.50;;;19.20;99.90;;;;;;5017156;28;20438;-75
2021/08/06 02:06:22;;;;;;;0.80;0.60;;;19.20;99.90;;;;;;5034076;28;20520;-75
2021/08/06 02:08:48;;;;;;;4.93;1.17;;;19.20;99.90;;;;;;5034314;28;20473;-76
2021/08/06 02:11:18;;;;;;;1.00;0.80;;;19.20;99.90;;;;;;5030753;28;20191;-76
2021/08/06 02:13:43;;;;;;;1.03;0.80;;;19.10;99.90;;;;;;5031142;28;20164;-76
2021/08/06 02:16:10;;;;;;;1.47;0.90;;;19.10;99.90;;;;;;5034137;28;20430;-76
2021/08/06 02:18:36;;;;;;;1.73;1.63;;;19.10;99.90;;;;;;5034813;28;20325;-77
2021/08/06 02:21:10;;;;;;;0.80;0.70;;;19.00;99.90;;;;;;5033824;28;20406;-76
2021/08/06 02:23:36;;;;;;;1.03;0.90;;;19.00;99.90;;;;;;5025808;28;20433;-75
2021/08/06 02:26:04;;;;;;;1.13;1.03;;;19.00;99.90;;;;;;5014265;28;20959;-76
2021/08/06 02:28:30;;;;;;;0.90;0.80;;;18.90;99.90;;;;;;5004068;28;20927;-76
2021/08/06 02:30:56;;;;;;;0.73;0.57;;;18.80;99.90;;;;;;5016820;28;20433;-76
2021/08/06 02:33:23;;;;;;;0.70;0.60;;;18.80;99.90;;;;;;5024313;28;20176;-76
2021/08/06 02:35:48;;;;;;;1.27;0.90;;;18.70;99.90;;;;;;5012585;28;20445;-76
2021/08/06 02:38:21;;;;;;;0.90;0.77;;;18.70;99.90;;;;;;5014548;28;20419;-76
2021/08/06 02:40:47;;;;;;;1.17;0.73;;;18.70;99.90;;;;;;5013633;28;20167;-75
2021/08/06 02:43:13;;;;;;;0.73;0.57;;;18.70;99.90;;;;;;5021478;28;20916;-75
2021/08/06 02:45:39;;;;;;;0.70;0.50;;;18.70;99.90;;;;;;5029491;28;20523;-74
2021/08/06 02:48:05;;;;;;;0.80;0.60;;;18.70;99.90;;;;;;5033839;28;20176;-76
2021/08/06 02:50:31;;;;;;;2.73;0.90;;;18.70;99.90;;;;;;5033899;28;20442;-77
2021/08/06 02:52:56;;;;;;;0.80;0.70;;;18.70;99.90;;;;;;5022008;28;20451;-76
2021/08/06 02:55:22;;;;;;;0.70;0.57;;;18.70;99.90;;;;;;5013944;28;20200;-76
2021/08/06 02:57:47;;;;;;;4.10;1.50;;;18.70;99.90;;;;;;5023063;28;20187;-76
2021/08/06 03:00:13;;;;;;;0.90;0.60;;;18.70;99.90;;;;;;5032034;28;20178;-76
2021/08/06 03:02:39;;;;;;;0.80;0.63;;;18.70;99.90;;;;;;5029394;28;20203;-74
2021/08/06 03:05:05;;;;;;;0.70;0.50;;;18.70;99.90;;;;;;5014055;28;20528;-76
2021/08/06 03:07:30;;;;;;;2.63;2.53;;;18.70;99.90;;;;;;5011628;28;20171;-76
2021/08/06 03:09:56;;;;;;;0.80;0.60;;;18.70;99.90;;;;;;5029238;28;20418;-76
2021/08/06 03:12:22;;;;;;;3.03;0.87;;;18.70;99.90;;;;;;5028753;28;20637;-76
2021/08/06 03:14:47;;;;;;;0.80;0.60;;;18.70;99.90;;;;;;5033114;28;20206;-77
2021/08/06 03:17:13;;;;;;;1.00;0.90;;;18.70;99.90;;;;;;5015880;28;20179;-76
2021/08/06 03:19:38;;;;;;;1.07;0.97;;;18.60;99.90;;;;;;5017271;28;20187;-76
2021/08/06 03:22:04;;;;;;;0.80;0.70;;;18.50;99.90;;;;;;5028000;28;20648;-75
2021/08/06 03:24:29;;;;;;;1.27;1.07;;;18.60;99.90;;;;;;5017856;28;20204;-76
2021/08/06 03:26:55;;;;;;;1.67;1.10;;;18.50;99.90;;;;;;5031102;28;20182;-77
2021/08/06 03:29:20;;;;;;;0.80;0.60;;;18.50;99.90;;;;;;5027929;28;20172;-76
2021/08/06 03:31:46;;;;;;;0.70;0.50;;;18.50;99.90;;;;;;5017644;28;20251;-75
2021/08/06 03:34:11;;;;;;;0.90;0.70;;;18.50;99.90;;;;;;5025745;28;20185;-76
2021/08/06 03:36:37;;;;;;;1.43;0.80;;;18.40;99.90;;;;;;5032937;28;20183;-76
2021/08/06 03:39:04;;;;;;;0.87;0.87;;;18.50;99.90;;;;;;5033639;28;20181;-76
2021/08/06 03:41:30;;;;;;;1.40;0.70;;;18.50;99.90;;;;;;5028770;28;20418;-77
2021/08/06 03:43:55;;;;;;;0.80;0.70;;;18.50;99.90;;;;;;5023432;28;20515;-77
2021/08/06 03:46:21;;;;;;;0.90;0.80;;;18.50;99.90;;;;;;5013277;28;20207;-76
2021/08/06 03:48:47;;;;;;;2.90;1.03;;;18.50;99.90;;;;;;5013362;28;20326;-76
2021/08/06 03:51:13;;;;;;;0.70;0.50;;;18.40;99.90;;;;;;5021614;28;20181;-77
2021/08/06 03:53:38;;;;;;;2.10;1.17;;;18.40;99.90;;;;;;5025561;28;20509;-76
2021/08/06 03:56:04;;;;;;;0.80;0.60;;;18.30;99.90;;;;;;5016398;28;20229;-77
2021/08/06 03:58:29;;;;;;;0.90;0.70;;;18.30;99.90;;;;;;5032903;28;20183;-77
2021/08/06 04:00:55;;;;;;;1.10;0.70;;;18.30;99.90;;;;;;5027113;28;20692;-76
2021/08/06 04:03:20;;;;;;;0.80;0.70;;;18.30;99.90;;;;;;4996058;28;20637;-77
2021/08/06 04:05:46;;;;;;;0.80;0.60;;;18.20;99.90;;;;;;5022353;28;20200;-77
2021/08/06 04:08:12;;;;;;;0.90;0.83;;;18.30;99.90;;;;;;5032960;28;20651;-77
2021/08/06 04:10:38;;;;;;;1.07;0.97;;;18.20;99.90;;;;;;5014049;28;20514;-76
2021/08/06 04:13:03;;;;;;;1.53;0.93;;;18.20;99.90;;;;;;5021798;28;20191;-76
2021/08/06 04:15:29;;;;;;;1.10;1.00;;;18.20;99.90;;;;;;5012587;28;20243;-75
2021/08/06 04:17:55;;;;;;;1.17;1.07;;;18.20;99.90;;;;;;5013282;28;20180;-77
2021/08/06 04:20:21;;;;;;;1.13;1.00;;;18.20;99.90;;;;;;5009631;28;20260;-77
2021/08/06 04:22:46;;;;;;;1.07;0.70;;;18.20;99.90;;;;;;5003454;28;20573;-76
2021/08/06 04:25:13;;;;;;;0.80;0.60;;;18.20;99.90;;;;;;5031972;28;20545;-76
2021/08/06 04:27:39;;;;;;;0.90;0.67;;;18.20;99.90;;;;;;5007123;28;20172;-77
2021/08/06 04:30:06;;;;;;;0.70;0.60;;;18.20;99.90;;;;;;5024476;28;20422;-77
2021/08/06 04:32:32;;;;;;;0.70;0.50;;;18.20;99.90;;;;;;5015376;28;20415;-76
2021/08/06 04:34:57;;;;;;;1.20;0.63;;;18.20;99.90;;;;;;5022647;28;20533;-75
2021/08/06 04:37:23;;;;;;;1.03;0.93;;;18.20;99.90;;;;;;5023448;28;20245;-76
2021/08/06 04:39:49;;;;;;;1.10;0.67;;;18.20;99.90;;;;;;5029277;28;20186;-77
2021/08/06 04:42:15;;;;;;;0.80;0.60;;;18.20;99.90;;;;;;5031048;28;20203;-76
2021/08/06 04:44:40;;;;;;;0.90;0.80;;;18.20;99.90;;;;;;5032027;28;20217;-77
2021/08/06 04:47:06;;;;;;;0.90;0.70;;;18.20;99.90;;;;;;5023910;28;20687;-75
2021/08/06 04:49:33;;;;;;;2.20;2.10;;;18.20;99.90;;;;;;5012862;28;20187;-75
2021/08/06 04:51:59;;;;;;;4.40;0.80;;;18.20;99.90;;;;;;5013620;28;20483;-77
2021/08/06 04:54:24;;;;;;;1.83;1.10;;;18.20;99.90;;;;;;5012679;28;20847;-76
2021/08/06 04:56:50;;;;;;;0.77;0.67;;;18.20;99.90;;;;;;5004567;28;20422;-75
2021/08/06 04:59:16;;;;;;;2.80;0.73;;;18.30;99.90;;;;;;5004995;28;20187;-77
2021/08/06 05:01:41;;;;;;;1.20;1.10;;;18.30;99.90;;;;;;5022996;28;20187;-76
2021/08/06 05:04:07;;;;;;;1.53;1.00;;;18.30;99.90;;;;;;5031918;28;20203;-77
2021/08/06 05:06:32;;;;;;;0.87;0.87;;;18.30;99.90;;;;;;5023080;28;20176;-77
2021/08/06 05:08:58;;;;;;;1.47;1.37;;;18.40;99.90;;;;;;5005711;28;20179;-77
2021/08/06 05:11:24;;;;;;;0.80;0.70;;;18.30;99.90;;;;;;5024423;28;20430;-76
2021/08/06 05:13:49;;;;;;;2.07;0.87;;;18.40;99.90;;;;;;5029274;28;20645;-77
2021/08/06 05:16:15;;;;;;;1.00;1.00;;;18.40;99.90;;;;;;5027085;28;20690;-76
2021/08/06 05:18:40;;;;;;;0.70;0.50;;;18.40;99.90;;;;;;5003309;28;20226;-76
2021/08/06 05:21:06;;;;;;;0.80;0.80;;;18.40;99.90;;;;;;5018355;28;20863;-76
2021/08/06 05:23:32;;;;;;;0.80;0.63;;;18.50;99.90;;;;;;5031576;28;20591;-76
2021/08/06 05:25:58;;;;;;;0.90;0.70;;;18.40;99.90;;;;;;5030071;28;20217;-76
2021/08/06 05:28:24;;;;;;;1.07;0.97;;;18.50;99.90;;;;;;5029727;28;20501;-76
2021/08/06 05:30:49;;;;;;;0.70;0.50;;;18.40;99.90;;;;;;5028733;28;20410;-76
2021/08/06 05:33:15;;;;;;;0.93;0.73;;;18.40;99.90;;;;;;5024914;28;20226;-75
2021/08/06 05:35:41;;;;;;;0.90;0.80;;;18.30;99.90;;;;;;5026664;28;20260;-76
2021/08/06 05:38:07;;;;;;;0.90;0.70;;;18.40;99.90;;;;;;5032069;28;20275;-76
2021/08/06 05:40:33;;;;;;;0.80;0.70;;;18.30;99.90;;;;;;5025532;28;20997;-76
2021/08/06 05:42:59;;;;;;;0.80;0.60;;;18.30;99.90;;;;;;5032026;28;20483;-77
2021/08/06 05:45:24;;;;;;;1.57;0.83;;;18.30;99.90;;;;;;5031361;28;20537;-73
2021/08/06 05:47:52;;;;;;;0.80;0.70;;;18.30;99.90;;;;;;5029985;28;20172;-76
2021/08/06 05:50:20;;;;;;;2.20;0.83;;;18.30;99.90;;;;;;5029991;28;20187;-74
2021/08/06 05:52:46;;;;;;;0.80;0.70;;;18.30;99.90;;;;;;5015955;28;20433;-76
2021/08/06 05:55:13;;;;;;;0.80;0.70;;;18.40;99.90;;;;;;5032400;28;20536;-76
2021/08/06 05:57:39;;;;;;;0.70;0.60;;;18.40;99.90;;;;;;5009384;28;20419;-74
2021/08/06 06:00:07;;;;;;;1.10;0.60;;;18.50;99.90;;;;;;5026784;28;20786;-74
2021/08/06 06:02:33;;;;;;;1.73;1.23;;;18.50;99.90;;;;;;5017540;28;20418;-76
2021/08/06 06:04:59;;;;;;;0.80;0.80;;;18.60;99.90;;;;;;5019687;28;20993;-77
2021/08/06 06:07:24;;;;;;;1.73;1.33;;;18.70;99.90;;;;;;5020087;28;20188;-76
2021/08/06 06:09:50;;;;;;;1.53;1.10;;;18.70;99.90;;;;;;5019601;28;20179;-75
2021/08/06 06:12:15;;;;;;;4.80;1.10;;;18.80;99.90;;;;;;5015668;28;20227;-76
2021/08/06 06:14:41;;;;;;;2.00;1.53;;;18.80;99.90;;;;;;5018563;28;20215;-77
2021/08/06 06:17:07;;;;;;;1.17;1.07;;;18.80;99.90;;;;;;5018090;28;20180;-76
2021/08/06 06:19:32;;;;;;;1.30;1.03;;;18.80;99.90;;;;;;5024037;28;20202;-74
2021/08/06 06:21:58;;;;;;;0.87;0.87;;;18.90;99.90;;;;;;5027158;28;20207;-77
2021/08/06 06:24:24;;;;;;;0.80;0.60;;;18.90;99.90;;;;;;5029751;28;20580;-74
2021/08/06 06:26:49;;;;;;;1.00;0.90;;;18.90;99.90;;;;;;5025450;28;20183;-74
2021/08/06 06:29:15;;;;;;;3.17;1.37;;;19.00;99.90;;;;;;5016405;28;20172;-74
2021/08/06 06:31:40;;;;;;;0.90;0.63;;;19.00;99.90;;;;;;5032360;28;20174;-74
2021/08/06 06:34:06;;;;;;;0.70;0.50;;;18.90;99.90;;;;;;5026880;28;20704;-73
2021/08/06 06:36:31;;;;;;;1.77;0.70;;;18.90;99.90;;;;;;5014090;28;20541;-77
2021/08/06 06:38:57;;;;;;;0.80;0.80;;;19.00;99.90;;;;;;5013634;28;20603;-75
2021/08/06 06:41:23;;;;;;;0.70;0.50;;;19.10;99.90;;;;;;5028580;28;20262;-75
2021/08/06 06:43:48;;;;;;;1.10;0.90;;;19.10;99.90;;;;;;5027411;28;20177;-74
2021/08/06 06:46:14;;;;;;;0.80;0.60;;;19.10;99.90;;;;;;5026993;28;20242;-73
2021/08/06 06:48:39;;;;;;;2.40;1.17;;;19.20;99.90;;;;;;5029227;28;20175;-75
2021/08/06 06:51:05;;;;;;;0.70;0.50;;;19.20;99.90;;;;;;5013690;28;20219;-73
2021/08/06 06:53:30;;;;;;;0.90;0.60;;;19.30;99.90;;;;;;5024242;28;20654;-74
2021/08/06 06:55:56;;;;;;;0.70;0.50;;;19.40;99.90;;;;;;5030328;28;20196;-77
2021/08/06 06:58:22;;;;;;;0.70;0.50;;;19.40;99.90;;;;;;5034055;28;20175;-75
2021/08/06 07:00:48;;;;;;;0.70;0.50;;;19.50;99.90;;;;;;5028692;28;20179;-76
2021/08/06 07:03:14;;;;;;;0.93;0.83;;;19.60;99.90;;;;;;5009252;28;20203;-76
2021/08/06 07:05:39;;;;;;;0.70;0.50;;;19.70;99.90;;;;;;5006032;28;20466;-74
2021/08/06 07:08:05;;;;;;;0.70;0.50;;;19.70;99.90;;;;;;5020159;28;20175;-77
2021/08/06 07:10:31;;;;;;;0.83;0.77;;;19.80;99.90;;;;;;5023039;28;20704;-75
2021/08/06 07:12:57;;;;;;;0.80;0.60;;;19.90;99.90;;;;;;5016403;28;20248;-74
2021/08/06 07:15:23;;;;;;;0.70;0.60;;;20.00;99.90;;;;;;5033392;28;20203;-77
2021/08/06 07:17:49;;;;;;;0.70;0.50;;;20.00;99.90;;;;;;5037313;28;20521;-77
2021/08/06 07:20:16;;;;;;;0.97;0.97;;;19.90;99.90;;;;;;5018210;28;20458;-76
2021/08/06 07:22:42;;;;;;;0.70;0.60;;;20.00;99.90;;;;;;5019963;28;20191;-77
2021/08/06 07:25:10;;;;;;;0.70;0.50;;;20.00;99.90;;;;;;5026965;28;20462;-77
2021/08/06 07:27:40;;;;;;;0.80;0.70;;;20.20;99.90;;;;;;5023775;28;20431;-75
2021/08/06 07:30:07;;;;;;;0.97;0.93;;;20.20;99.90;;;;;;5014022;28;20818;-76
2021/08/06 07:32:33;;;;;;;0.70;0.50;;;20.30;99.90;;;;;;5018595;28;20471;-77
2021/08/06 07:34:59;;;;;;;0.70;0.50;;;20.50;99.90;;;;;;5012860;28;20449;-77
2021/08/06 07:37:26;;;;;;;0.70;0.60;;;20.70;99.90;;;;;;5030589;28;20803;-75
2021/08/06 07:39:51;;;;;;;1.17;0.60;;;20.70;99.90;;;;;;5031910;28;20551;-75
2021/08/06 07:42:18;;;;;;;0.70;0.50;;;20.90;99.90;;;;;;5026440;28;20431;-75
2021/08/06 07:44:44;;;;;;;0.70;0.50;;;21.00;99.90;;;;;;5020238;28;20318;-75
2021/08/06 07:47:10;;;;;;;0.70;0.50;;;21.00;99.90;;;;;;5032027;28;20791;-75
2021/08/06 07:49:35;;;;;;;0.70;0.50;;;21.00;99.90;;;;;;5027424;28;20431;-75
2021/08/06 07:52:01;;;;;;;0.70;0.50;;;21.00;99.90;;;;;;5024190;28;20192;-75
2021/08/06 07:54:27;;;;;;;0.70;0.50;;;21.00;99.90;;;;;;5014606;28;20203;-77
2021/08/06 07:56:52;;;;;;;0.80;0.60;;;20.90;99.90;;;;;;5021796;28;20869;-76
2021/08/06 07:59:19;;;;;;;0.70;0.60;;;21.00;99.90;;;;;;5022693;28;20184;-77
2021/08/06 08:01:46;;;;;;;0.90;0.60;;;21.10;99.90;;;;;;5026640;28;20182;-75
2021/08/06 08:04:11;;;;;;;0.70;0.50;;;21.30;99.90;;;;;;5003025;28;20489;-77
2021/08/06 08:06:37;;;;;;;0.70;0.50;;;21.40;99.90;;;;;;5026669;28;20443;-76
2021/08/06 08:09:03;;;;;;;1.27;0.60;;;21.60;99.90;;;;;;5022638;28;20195;-77
2021/08/06 08:11:28;;;;;;;0.80;0.50;;;21.90;99.90;;;;;;5024766;28;20655;-77
2021/08/06 08:13:54;;;;;;;0.70;0.50;;;22.00;99.90;;;;;;5023164;28;20241;-75
2021/08/06 08:16:20;;;;;;;0.70;0.50;;;22.10;99.90;;;;;;5021058;28;20237;-76
2021/08/06 08:18:46;;;;;;;0.77;0.60;;;22.30;99.90;;;;;;5018233;28;20278;-75
2021/08/06 08:21:11;;;;;;;0.70;0.50;;;22.30;99.90;;;;;;5005631;28;20856;-75
2021/08/06 08:23:37;;;;;;;0.70;0.50;;;22.40;99.90;;;;;;5015529;28;20195;-77
2021/08/06 08:26:02;;;;;;;0.70;0.50;;;22.20;99.90;;;;;;5011400;28;20212;-72
2021/08/06 08:28:28;;;;;;;0.80;0.60;;;21.90;99.90;;;;;;5024769;28;20429;-77
2021/08/06 08:30:54;;;;;;;1.00;0.60;;;21.40;99.90;;;;;;5014633;28;20184;-76
2021/08/06 08:33:21;;;;;;;0.70;0.50;;;21.10;99.90;;;;;;5027463;28;20258;-77
2021/08/06 08:35:47;;;;;;;0.70;0.53;;;20.60;99.90;;;;;;5017768;28;20964;-79
2021/08/06 08:38:57;;;;;;;2.50;0.93;;;20.40;99.90;;;;;;5030236;28;20441;-76
2021/08/06 08:41:23;;;;;;;0.70;0.60;;;20.20;99.90;;;;;;5020220;28;20435;-76
2021/08/06 08:43:49;;;;;;;1.57;1.17;;;20.00;99.90;;;;;;5021524;28;20414;-73
2021/08/06 08:46:18;;;;;;;0.87;0.87;;;19.90;99.90;;;;;;5024171;28;20463;-73
2021/08/06 08:48:46;;;;;;;0.90;0.60;;;19.90;99.90;;;;;;5020347;28;20425;-76
2021/08/06 08:51:13;;;;;;;0.70;0.50;;;19.70;99.90;;;;;;5013971;28;20173;-79
2021/08/06 08:53:39;;;;;;;1.30;1.13;;;19.70;99.90;;;;;;5031432;28;20514;-76
2021/08/06 08:56:04;;;;;;;0.70;0.50;;;19.70;99.90;;;;;;5015882;28;20467;-76
2021/08/06 08:58:30;;;;;;;0.70;0.50;;;19.70;99.90;;;;;;5018601;28;20471;-75
2021/08/06 09:00:56;;;;;;;0.80;0.77;;;19.70;99.90;;;;;;5031597;28;20176;-75
2021/08/06 09:03:48;;;;;;;1.23;0.80;;;19.80;99.90;;;;;;5022115;28;20264;-78
2021/08/06 09:06:15;;;;;;;1.83;0.67;;;19.80;99.90;;;;;;5000751;28;20229;-76
2021/08/06 09:08:41;;;;;;;0.70;0.50;;;19.80;99.90;;;;;;5029776;28;20776;-77
2021/08/06 09:11:30;;;;;;;0.70;0.50;;;19.90;99.90;;;;;;5010849;28;20419;-77
2021/08/06 09:14:20;;;;;;;0.80;0.70;;;20.00;99.90;;;;;;5027368;28;20449;-77
2021/08/06 09:16:55;;;;;;;9.97;3.57;;;20.30;99.90;;;;;;5012168;28;20470;-75
2021/08/06 09:19:21;;;;;;;1.33;1.23;;;20.40;99.90;;;;;;5017147;28;20914;-77
2021/08/06 09:21:47;;;;;;;0.70;0.50;;;20.50;99.90;;;;;;5015777;28;20445;-76
2021/08/06 09:24:12;;;;;;;0.80;0.60;;;20.60;99.90;;;;;;5016440;28;20198;-76
2021/08/06 09:26:41;;;;;;;0.70;0.60;;;20.70;99.90;;;;;;5031907;28;20252;-74
2021/08/06 09:29:19;;;;;;;0.73;0.60;;;20.80;99.90;;;;;;5019334;28;20237;-77
2021/08/06 09:31:51;;;;;;;2.13;1.20;;;20.80;99.90;;;;;;5019825;28;20942;-78
2021/08/06 09:34:29;;;;;;;1.30;1.00;;;21.00;99.90;;;;;;5014807;28;20950;-76
2021/08/06 09:37:09;;;;;;;0.70;0.50;;;21.10;99.90;;;;;;5025947;28;21019;-77
2021/08/06 09:39:37;;;;;;;0.80;0.70;;;21.30;99.90;;;;;;5016683;28;20447;-77
2021/08/06 09:42:04;;;;;;;0.80;0.70;;;21.40;99.90;;;;;;5013494;28;20428;-76
2021/08/06 09:44:30;;;;;;;0.80;0.60;;;21.60;99.90;;;;;;5015120;28;20458;-77
2021/08/06 09:46:57;;;;;;;0.80;0.60;;;21.90;99.90;;;;;;5021717;28;20418;-78
2021/08/06 09:49:24;;;;;;;0.70;0.50;;;22.10;99.90;;;;;;5021238;28;20168;-78
2021/08/06 09:51:51;;;;;;;0.80;0.70;;;22.30;99.90;;;;;;5018999;28;20486;-77
2021/08/06 09:54:28;;;;;;;0.70;0.60;;;22.60;99.90;;;;;;5016981;28;20880;-77
2021/08/06 09:57:11;;;;;;;1.10;0.60;;;22.90;99.90;;;;;;5016009;28;20430;-78
2021/08/06 09:59:37;;;;;;;0.73;0.60;;;23.40;99.90;;;;;;5015129;28;20476;-78
2021/08/06 10:02:16;;;;;;;0.70;0.50;;;23.70;99.90;;;;;;5016419;28;20415;-78
2021/08/06 10:04:44;;;;;;;0.83;0.63;;;24.10;99.90;;;;;;5005413;28;20461;-77
2021/08/06 10:07:10;;;;;;;0.80;0.70;;;24.60;99.90;;;;;;5034517;28;20437;-78
2021/08/06 10:09:36;;;;;;;0.83;0.70;;;24.90;99.90;;;;;;5016656;28;20433;-78
2021/08/06 10:12:02;;;;;;;1.43;0.80;;;25.50;99.90;;;;;;5015351;28;20419;-79
2021/08/06 10:14:28;;;;;;;1.10;0.80;;;25.80;99.90;;;;;;5020419;28;20207;-77
2021/08/06 10:16:55;;;;;;;1.10;0.70;;;26.30;99.90;;;;;;5033612;28;20434;-78
2021/08/06 10:19:22;;;;;;;1.20;1.10;;;26.50;99.90;;;;;;5020591;28;20687;-78
2021/08/06 10:21:47;;;;;;;0.90;0.80;;;26.50;99.90;;;;;;5025351;28;20430;-78
2021/08/06 10:24:16;;;;;;;1.87;0.93;;;26.90;99.90;;;;;;5015911;28;20442;-78
2021/08/06 10:26:46;;;;;;;0.80;0.60;;;27.10;99.90;;;;;;5018733;28;20668;-79
2021/08/06 10:29:13;;;;;;;0.80;0.63;;;27.00;99.90;;;;;;5027239;28;20442;-80
2021/08/06 10:31:39;;;;;;;0.80;0.60;;;26.90;99.90;;;;;;5016275;28;20410;-79
2021/08/06 10:34:09;;;;;;;0.90;0.60;;;26.70;99.90;;;;;;5029222;28;20476;-78
2021/08/06 10:36:45;;;;;;;1.73;1.63;;;26.90;99.90;;;;;;5033749;28;20168;-78
2021/08/06 10:39:26;;;;;;;0.83;0.70;;;26.90;99.90;;;;;;5030195;28;20411;-79
2021/08/06 10:41:53;;;;;;;0.90;0.67;;;27.10;99.90;;;;;;5031037;28;20502;-79
2021/08/06 10:44:18;;;;;;;1.43;1.00;;;27.40;99.90;;;;;;5019376;28;20457;-78
2021/08/06 10:46:59;;;;;;;1.00;0.77;;;27.40;99.90;;;;;;5013100;28;20418;-79
2021/08/06 10:49:28;;;;;;;0.90;0.70;;;27.30;99.90;;;;;;5005182;28;20172;-80
2021/08/06 10:52:16;;;;;;;0.80;0.53;;;27.40;99.90;;;;;;5026958;28;20427;-78
2021/08/06 10:54:43;;;;;;;0.80;0.60;;;27.30;99.90;;;;;;5024903;28;20489;-79
2021/08/06 10:57:16;;;;;;;1.03;0.90;;;27.10;99.90;;;;;;5024860;28;20533;-79
2021/08/06 10:59:43;;;;;;;0.80;0.60;;;26.80;99.90;;;;;;5012322;28;20404;-80
2021/08/06 11:02:35;;;;;;;1.00;0.87;;;26.50;99.90;;;;;;5027304;28;20430;-80
2021/08/06 11:05:21;;;;;;;1.27;0.60;;;26.10;99.90;;;;;;5003833;28;20554;-78
2021/08/06 11:07:46;;;;;;;0.80;0.60;;;25.60;99.90;;;;;;5013347;28;20454;-77
2021/08/06 11:10:49;;;;;;;0.80;0.50;;;25.30;99.90;;;;;;5023272;28;20407;-79
2021/08/06 11:13:51;;;;;;;0.80;0.50;;;24.90;99.90;;;;;;5013917;28;20261;-79
2021/08/06 11:16:17;;;;;;;0.90;0.80;;;24.70;99.90;;;;;;5036154;28;20519;-79
2021/08/06 11:18:48;;;;;;;2.00;1.00;;;24.90;99.90;;;;;;5028083;28;20531;-79
2021/08/06 11:21:14;;;;;;;1.13;1.03;;;25.20;99.90;;;;;;5034017;28;20640;-78
2021/08/06 11:23:39;;;;;;;1.00;0.70;;;25.60;99.90;;;;;;5026190;28;20447;-79
2021/08/06 11:26:10;;;;;;;0.80;0.50;;;25.60;99.90;;;;;;5016037;28;20504;-78
2021/08/06 11:28:36;;;;;;;1.77;0.80;;;25.40;99.90;;;;;;5034983;28;20167;-81
2021/08/06 11:31:17;;;;;;;0.80;0.60;;;24.80;99.90;;;;;;5026598;28;21126;-79
2021/08/06 11:33:43;;;;;;;0.80;0.60;;;24.40;99.90;;;;;;5016121;28;20186;-79
2021/08/06 11:36:16;;;;;;;0.90;0.60;;;23.90;99.90;;;;;;5009670;28;20450;-77
2021/08/06 11:38:41;;;;;;;0.80;0.70;;;23.60;99.90;;;;;;5034989;28;20572;-81
2021/08/06 11:41:07;;;;;;;0.70;0.50;;;23.20;99.90;;;;;;5023515;28;20982;-77
2021/08/06 11:43:37;;;;;;;1.17;1.07;;;22.80;99.90;;;;;;5032742;28;20175;-77
2021/08/06 11:46:13;;;;;;;0.77;0.60;;;22.60;99.90;;;;;;5026295;28;20590;-76
2021/08/06 11:48:51;;;;;;;0.80;0.60;;;22.40;99.90;;;;;;5013094;28;20418;-77
2021/08/06 11:51:17;;;;;;;0.80;0.50;;;22.20;99.90;;;;;;5009371;28;20426;-77
2021/08/06 11:53:42;;;;;;;1.07;0.63;;;22.00;99.90;;;;;;5016147;28;20419;-77
2021/08/06 11:56:26;;;;;;;0.80;0.50;;;21.90;99.90;;;;;;5013443;28;20974;-76
2021/08/06 11:58:51;;;;;;;1.10;0.70;;;21.80;99.90;;;;;;5012624;28;20188;-78
2021/08/06 12:01:21;;;;;;;1.17;1.07;;;21.80;99.90;;;;;;5014152;28;20427;-78
2021/08/06 12:03:52;;;;;;;0.70;0.50;;;21.70;99.90;;;;;;5028536;28;20263;-77
2021/08/06 12:06:19;;;;;;;0.80;0.53;;;21.90;99.90;;;;;;5031769;28;20462;-78
2021/08/06 12:08:46;;;;;;;0.73;0.60;;;22.20;99.90;;;;;;5014435;28;20756;-78
2021/08/06 12:11:13;;;;;;;0.70;0.50;;;22.90;99.90;;;;;;5018929;28;20454;-78
2021/08/06 12:13:49;;;;;;;0.90;0.60;;;23.40;99.90;;;;;;5027677;28;20497;-78
2021/08/06 12:16:18;;;;;;;1.20;0.60;;;23.70;99.90;;;;;;5012533;28;20450;-78
2021/08/06 12:18:52;;;;;;;0.90;0.80;;;24.40;99.90;;;;;;5013575;28;20496;-78
2021/08/06 12:21:35;;;;;;;0.80;0.57;;;25.20;99.90;;;;;;5022980;28;20446;-78
2021/08/06 12:24:06;;;;;;;1.13;0.60;;;26.10;99.90;;;;;;5007233;28;20529;-79
2021/08/06 12:26:34;;;;;;;0.80;0.60;;;26.50;99.90;;;;;;5032513;28;20426;-78
2021/08/06 12:29:12;;;;;;;1.33;0.60;;;26.70;99.90;;;;;;5032215;28;21160;-79
2021/08/06 12:31:53;;;;;;;0.80;0.60;;;26.70;99.90;;;;;;5030859;28;20966;-78
2021/08/06 12:34:34;;;;;;;0.80;0.57;;;26.50;99.90;;;;;;5003095;28;20430;-79
2021/08/06 12:37:07;;;;;;;1.43;0.70;;;26.30;99.90;;;;;;5024015;28;20645;-79
2021/08/06 12:39:35;;;;;;;0.80;0.50;;;26.20;99.90;;;;;;4994807;28;20446;-77
2021/08/06 12:42:14;;;;;;;0.90;0.70;;;26.20;99.90;;;;;;5029362;28;20425;-79
2021/08/06 12:44:39;;;;;;;0.90;0.70;;;26.30;99.90;;;;;;5006211;28;20826;-77
2021/08/06 12:47:08;;;;;;;0.80;0.60;;;26.10;99.90;;;;;;4994641;28;20419;-78
2021/08/06 12:49:37;;;;;;;0.80;0.60;;;26.30;99.90;;;;;;5026477;28;20168;-78
2021/08/06 12:52:05;;;;;;;0.80;0.70;;;26.60;99.90;;;;;;5015579;28;20406;-78
2021/08/06 12:54:42;;;;;;;0.80;0.60;;;26.80;99.90;;;;;;5021802;28;20443;-78